Latest Weather Observations for Flinders Reef

IDQ60801

Issued at 6:32 pm EST Sunday 24 July 2016 (issued every 30 minutes, with the page automatically refreshed every 10 minutes)

About weather observations | Map of weather stations | Latest weather observations for QLD | Other Formats
Station Details ID: 200783 Name: FLINDERS REEF Lat: -17.72 Lon: 148.45 Height: 2.6 m
Data from the previous 72 hours. | See also: Recent months at Flinders Reef
Date/Time
EST
Temp
°C
App
Temp
°C
Dew
Point
°C
Rel
Hum
%
Delta-T
°C
Wind Press
QNH
hPa
Press
MSL
hPa
Rain since
9am
mm
Dir  Spd
km/h
Gust
km/h
Spd
kts
Gust
kts
24/06:30pm 24.2 - - - - SE 15 19 8 10 1014.3 - -
24/06:24pm 24.3 - - - - ESE 15 17 8 9 1014.2 1014.1 -
24/06:00pm 24.2 - - - - ESE 15 19 8 10 1014.0 - -
24/05:30pm 24.2 - - - - SSE 17 20 9 11 1013.7 - -
24/05:24pm 24.3 - - - - SSE 17 - 9 - - 1013.6 -
24/05:00pm 24.5 - - - - SSE 17 20 9 11 1013.7 - -
24/04:30pm 24.3 - - - - S 17 20 9 11 1013.6 - -
24/04:24pm 24.6 - - - - S 17 - 9 - - 1013.5 -
24/04:00pm 24.3 - - - - S 17 20 9 11 1013.4 - -
24/03:30pm 24.5 - - - - SSE 17 20 9 11 1013.5 - -
24/03:24pm 24.5 - - - - S 17 - 9 - - 1013.3 -
24/03:00pm 24.4 - - - - S 17 19 9 10 1013.6 - -
24/02:30pm 24.2 - - - - SSE 17 20 9 11 1013.7 - -
24/02:24pm 24.3 - - - - SSE 15 - 8 - - 1013.6 -
24/02:00pm 24.6 - - - - SSE 15 20 8 11 1013.8 - -
24/01:30pm 24.5 - - - - SE 15 17 8 9 1014.0 - -
24/01:24pm 24.8 - - - - SSE 15 - 8 - - 1014.0 -
24/01:00pm 24.5 - - - - SE 13 17 7 9 1014.5 - -
24/12:30pm 24.6 - - - - SE 15 17 8 9 1014.7 - -
24/12:24pm 24.7 - - - - SE 15 - 8 - - 1014.6 -
24/12:00pm 24.7 - - - - ESE 15 20 8 11 1015.0 - -
24/11:30am 24.8 - - - - ESE 17 19 9 10 1015.3 - -
24/11:24am 24.7 - - - - ESE 17 - 9 - - 1015.2 -
24/11:00am 24.7 - - - - SE 17 20 9 11 1015.7 - -
24/10:30am 24.5 - - - - SE 15 17 8 9 1015.9 - -
24/10:24am 24.7 - - - - SE 15 - 8 - - 1015.8 -
24/10:00am 24.7 - - - - ESE 15 17 8 9 1016.1 - -
24/09:30am 24.6 - - - - ESE 13 17 7 9 1016.1 - -
24/09:24am 24.7 - - - - ESE 15 - 8 - - 1016.1 -
24/09:00am 24.8 - - - - ESE 15 17 8 9 1016.0 - -
24/08:30am 24.8 - - - - E 13 17 7 9 1015.9 - -
24/08:24am 24.7 - - - - E 15 - 8 - - 1015.8 -
24/08:00am 24.8 - - - - ESE 11 17 6 9 1015.6 - -
24/07:30am 24.4 - - - - ESE 13 17 7 9 1015.3 - -
24/07:24am 24.4 - - - - ESE 11 - 6 - - 1015.2 -
24/07:00am 24.2 - - - - E 15 17 8 9 1015.1 - -
24/06:30am 24.0 - - - - E 15 19 8 10 1014.9 - -
24/06:24am 23.9 - - - - E 17 - 9 - - 1014.8 -
24/06:00am 24.0 - - - - ESE 15 20 8 11 1014.7 - -
24/05:30am 24.1 - - - - E 17 20 9 11 1014.1 - -
24/05:24am 23.9 - - - - E 17 - 9 - - 1014.0 -
24/05:00am 24.2 - - - - E 17 22 9 12 1013.8 - -
24/04:30am 24.1 - - - - E 17 22 9 12 1013.6 - -
24/04:24am 24.2 - - - - E 17 - 9 - - 1013.5 -
24/04:00am 24.1 - - - - E 15 19 8 10 1013.6 - -
24/03:30am 24.0 - - - - E 15 19 8 10 1013.6 - -
24/03:24am 24.2 - - - - E 17 - 9 - - 1013.5 -
24/03:00am 24.0 - - - - ENE 19 20 10 11 1013.6 - -
24/02:30am 24.0 - - - - E 17 20 9 11 1013.8 - -
24/02:24am 24.0 - - - - E 17 - 9 - - 1013.7 -
24/02:00am 24.1 - - - - ENE 19 20 10 11 1014.0 - -
24/01:30am 24.1 - - - - E 17 20 9 11 1014.2 - -
24/01:24am 24.0 - - - - E 15 - 8 - - 1014.2 -
24/01:00am 24.2 - - - - ENE 17 22 9 12 1014.2 - -
24/12:30am 24.2 - - - - E 17 20 9 11 1014.3 - -
24/12:24am 24.1 - - - - E 17 - 9 - - 1014.2 -
24/12:00am 24.2 - - - - E 19 20 10 11 1014.5 - -
 
Date/Time
EST
Temp
°C
App
Temp
°C
Dew
Point
°C
Rel
Hum
%
Delta-T
°C
Wind Press
QNH
hPa
Press
MSL
hPa
Rain since
9am
mm
Dir  Spd
km/h
Gust
km/h
Spd
kts
Gust
kts
23/11:30pm 24.2 - - - - E 19 20 10 11 1014.4 - -
23/11:24pm 24.3 - - - - E 17 - 9 - - 1014.3 -
23/11:00pm 24.3 - - - - E 19 22 10 12 1014.6 - -
23/10:30pm 24.4 - - - - ESE 19 22 10 12 1014.7 - -
23/10:24pm 24.2 - - - - ESE 19 - 10 - - 1014.6 -
23/10:00pm 24.4 - - - - ESE 17 20 9 11 1014.5 - -
23/09:30pm 24.2 - - - - ESE 19 20 10 11 1014.5 - -
23/09:24pm 24.3 - - - - ESE 17 - 9 - - 1014.4 -
23/09:00pm 24.3 - - - - ESE 2 6 1 3 1014.2 - -
23/08:30pm 24.3 - - - - CALM 0 2 0 1 1013.9 - -
23/08:24pm 24.2 - - - - CALM 0 - 0 - - 1013.8 -
23/08:00pm 24.3 - - - - CALM 0 7 0 4 1013.7 - -
23/07:30pm 24.3 - - - - CALM 0 2 0 1 1013.5 - -
23/07:24pm 24.3 - - - - CALM 0 - 0 - - 1013.4 -
23/07:00pm 24.3 - - - - CALM 0 9 0 5 1013.3 - -
23/06:30pm 24.4 - - - - SE 2 6 1 3 1013.0 - -
23/06:24pm 24.3 - - - - SE 2 - 1 - - 1012.8 -
23/06:00pm 24.4 - - - - SE 17 20 9 11 1013.0 - -
23/05:30pm 24.7 - - - - ESE 15 17 8 9 1012.8 - -
23/05:24pm 24.8 - - - - ESE 15 - 8 - - 1012.6 -
23/05:00pm 24.6 - - - - ESE 15 19 8 10 1012.5 - -
23/04:30pm 24.8 - - - - SE 15 19 8 10 1012.5 - -
23/04:24pm 24.8 - - - - SE 15 - 8 - - 1012.4 -
23/04:00pm 25.0 - - - - SE 9 15 5 8 1012.4 - -
23/03:30pm 25.1 - - - - ESE 11 15 6 8 1012.5 - -
23/03:24pm 24.9 - - - - ESE 11 - 6 - - 1012.4 -
23/03:00pm 25.3 - - - - ESE 11 15 6 8 1012.6 - -
23/02:30pm 25.1 - - - - ESE 13 15 7 8 1012.6 - -
23/02:24pm 25.0 - - - - ESE 13 - 7 - - 1012.6 -
23/02:00pm 25.1 - - - - ESE 11 15 6 8 1012.9 - -
23/01:30pm 24.9 - - - - ESE 13 15 7 8 1013.2 - -
23/01:24pm 24.9 - - - - ESE 15 - 8 - - 1013.1 -
23/01:00pm 24.9 - - - - ESE 17 20 9 11 1013.3 - -
23/12:30pm 25.0 - - - - SE 19 20 10 11 1013.8 - -
23/12:24pm 24.9 - - - - SE 17 - 9 - - 1013.8 -
23/12:00pm 24.9 - - - - SE 2 4 1 2 1014.2 - -
23/11:30am 25.0 - - - - ESE 19 20 10 11 1014.5 - -
23/11:24am 24.9 - - - - ESE 19 - 10 - - 1014.5 -
23/11:00am 24.7 - - - - ESE 20 22 11 12 1014.8 - -
23/10:30am 24.8 - - - - ESE 19 20 10 11 1015.2 - -
23/10:24am 25.0 - - - - ESE 19 - 10 - - 1015.2 -
23/10:00am 24.9 - - - - E 19 20 10 11 1015.4 - -
23/09:30am 24.9 - - - - E 19 20 10 11 1015.5 - -
23/09:24am 24.7 - - - - E 20 - 11 - - 1015.4 -
23/09:00am 24.6 - - - - E 19 22 10 12 1015.5 - -
23/08:30am 24.4 - - - - E 20 24 11 13 1015.5 - -
23/08:24am 24.4 - - - - ESE 20 - 11 - - 1015.3 -
23/08:00am 24.5 - - - - E 20 22 11 12 1015.2 - -
23/07:30am 24.4 - - - - ESE 20 22 11 12 1015.1 - -
23/07:24am 24.4 - - - - ESE 19 - 10 - - 1014.9 -
23/07:00am 24.3 - - - - E 20 24 11 13 1014.7 - -
23/06:30am 24.2 - - - - E 20 24 11 13 1014.3 - -
23/06:24am 24.3 - - - - E 20 - 11 - - 1014.0 -
23/06:00am 24.3 - - - - E 22 26 12 14 1013.8 - -
23/05:30am 24.3 - - - - E 24 26 13 14 1013.4 - -
23/05:24am 24.2 - - - - E 24 - 13 - - 1013.2 -
23/05:00am 24.3 - - - - E 22 28 12 15 1013.1 - -
23/04:30am 24.8 - - - - E 24 28 13 15 1013.2 - -
23/04:24am 24.6 - - - - E 26 - 14 - - 1013.1 -
23/04:00am 24.5 - - - - E 20 24 11 13 1013.4 - -
23/03:30am 24.6 - - - - E 17 20 9 11 1013.4 - -
23/03:24am 24.3 - - - - E 17 - 9 - - 1013.3 -
23/03:00am 24.4 - - - - E 15 17 8 9 1013.5 - -
23/02:30am 24.3 - - - - E 17 20 9 11 1013.6 - -
23/02:24am 24.4 - - - - E 19 - 10 - - 1013.6 -
23/02:00am 24.2 - - - - E 19 22 10 12 1013.8 - -
23/01:30am 24.1 - - - - E 19 22 10 12 1014.1 - -
23/01:24am 23.9 - - - - E 19 - 10 - - 1014.0 -
23/01:00am 24.1 - - - - E 15 19 8 10 1014.1 - -
23/12:30am 24.3 - - - - E 19 20 10 11 1014.4 - -
23/12:24am 24.4 - - - - E 19 - 10 - - 1014.3 -
23/12:00am 24.5 - - - - E 19 20 10 11 1014.4 - -
 
Date/Time
EST
Temp
°C
App
Temp
°C
Dew
Point
°C
Rel
Hum
%
Delta-T
°C
Wind Press
QNH
hPa
Press
MSL
hPa
Rain since
9am
mm
Dir  Spd
km/h
Gust
km/h
Spd
kts
Gust
kts
22/11:30pm 24.5 - - - - ESE 19 24 10 13 1014.5 - -
22/11:24pm 24.7 - - - - ESE 19 - 10 - - 1014.4 -
22/11:00pm 24.3 - - - - SE 19 22 10 12 1014.5 - -
22/10:30pm 24.5 - - - - SE 19 22 10 12 1014.6 - -
22/10:24pm 24.5 - - - - SE 22 - 12 - - 1014.5 -
22/10:00pm 24.7 - - - - SE 19 24 10 13 1014.4 - -
22/09:30pm 24.5 - - - - SE 22 24 12 13 1014.4 - -
22/09:24pm 24.6 - - - - SE 22 - 12 - - 1014.3 -
22/09:00pm 24.7 - - - - SE 19 24 10 13 1014.3 - -
22/08:30pm 24.3 - - - - SE 22 26 12 14 1014.3 - -
22/08:24pm 24.4 - - - - SE 22 - 12 - - 1014.2 -
22/08:00pm 24.2 - - - - SE 22 26 12 14 1014.2 - -
22/07:30pm 24.5 - - - - SSE 20 24 11 13 1014.1 - -
22/07:24pm 24.1 - - - - SSE 20 - 11 - - 1014.0 -
22/07:00pm 24.3 - - - - SSE 20 24 11 13 1014.1 - -
22/06:30pm 24.3 - - - - SE 19 22 10 12 1014.0 - -
22/06:24pm 24.2 - - - - SE 17 - 9 - - 1013.9 -
22/06:00pm 24.1 - - - - E 13 22 7 12 1014.0 - -
22/05:30pm 24.1 - - - - SE 24 26 13 14 1013.8 - -
22/05:24pm 24.1 - - - - SE 24 - 13 - - 1013.6 -
22/05:00pm 24.9 - - - - SSE 19 22 10 12 1013.6 - -
22/04:30pm 24.9 - - - - SSE 19 20 10 11 1013.5 - -
22/04:24pm 24.6 - - - - SE 19 - 10 - - 1013.3 -
22/04:00pm 24.9 - - - - SE 17 19 9 10 1013.3 - -
22/03:30pm 24.9 - - - - SE 17 19 9 10 1013.3 - -
22/03:24pm 24.8 - - - - SE 15 - 8 - - 1013.3 -
22/03:00pm 25.0 - - - - SE 17 19 9 10 1013.4 - -
22/02:30pm 24.8 - - - - SE 17 19 9 10 1013.5 - -
22/02:24pm 25.4 - - - - SE 15 - 8 - - 1013.4 -
22/02:00pm 24.8 - - - - ESE 15 19 8 10 1013.7 - -
22/01:30pm 24.8 - - - - ESE 19 20 10 11 1014.0 - -
22/01:24pm 24.9 - - - - ESE 19 - 10 - - 1014.0 -
22/01:00pm 25.0 - - - - ESE 20 24 11 13 1014.6 - -
22/12:30pm 24.8 - - - - ESE 20 22 11 12 1015.0 - -
22/12:24pm 24.7 - - - - ESE 20 - 11 - - 1015.0 -
22/12:00pm 25.0 - - - - ESE 19 22 10 12 1015.4 - -
22/11:30am 25.0 - - - - ESE 19 20 10 11 1015.7 - -
22/11:24am 24.8 - - - - ESE 19 - 10 - - 1015.7 -
22/11:00am 25.1 - - - - ESE 20 24 11 13 1016.0 - -
22/10:30am 24.9 - - - - E 22 26 12 14 1016.0 - -
22/10:24am 24.9 - - - - E 22 - 12 - - 1015.9 -
22/10:00am 24.9 - - - - E 24 28 13 15 1016.2 - -
22/09:30am 25.0 - - - - ESE 24 28 13 15 1016.3 - -
22/09:24am 24.9 - - - - ESE 22 - 12 - - 1016.2 -
22/09:00am 25.2 - - - - ESE 24 28 13 15 1016.2 - -
22/08:30am 24.8 - - - - ESE 24 28 13 15 1016.1 - -
22/08:24am 25.1 - - - - ESE 24 - 13 - - 1015.9 -
22/08:00am 24.7 - - - - E 26 30 14 16 1015.9 - -
22/07:30am 24.8 - - - - E 26 30 14 16 1015.5 - -
22/07:24am 24.9 - - - - E 26 - 14 - - 1015.3 -
22/07:00am 24.5 - - - - E 26 32 14 17 1015.2 - -
22/06:30am 24.3 - - - - E 28 32 15 17 1014.9 - -
22/06:24am 24.3 - - - - E 28 - 15 - - 1014.8 -
22/06:00am 24.4 - - - - E 28 32 15 17 1014.8 - -
22/05:30am 24.1 - - - - E 22 28 12 15 1014.6 - -
22/05:24am 24.4 - - - - ESE 20 - 11 - - 1014.5 -
22/05:00am 24.1 - - - - E 24 30 13 16 1014.5 - -
22/04:30am 24.6 - - - - E 26 30 14 16 1014.5 - -
22/04:24am 24.5 - - - - E 26 - 14 - - 1014.4 -
22/04:00am 24.4 - - - - E 26 32 14 17 1014.5 - -
22/03:30am 24.6 - - - - E 28 32 15 17 1014.5 - -
22/03:24am 24.3 - - - - E 28 - 15 - - 1014.4 -
22/03:00am 24.4 - - - - ESE 28 32 15 17 1014.6 - -
22/02:30am 24.4 - - - - ESE 30 33 16 18 1014.9 - -
22/02:24am 24.3 - - - - ESE 30 - 16 - - 1014.9 -
22/02:00am 24.4 - - - - ESE 32 35 17 19 1015.3 - -
22/01:30am 24.6 - - - - ESE 28 33 15 18 1015.5 - -
22/01:24am 24.5 - - - - ESE 28 - 15 - - 1015.5 -
22/01:00am 24.3 - - - - ESE 30 35 16 19 1015.8 - -
22/12:30am 24.7 - - - - ESE 32 35 17 19 1016.0 - -
22/12:24am 24.5 - - - - ESE 30 - 16 - - 1015.9 -
22/12:00am 24.4 - - - - ESE 30 33 16 18 1016.0 - -
 
Date/Time
EST
Temp
°C
App
Temp
°C
Dew
Point
°C
Rel
Hum
%
Delta-T
°C
Wind Press
QNH
hPa
Press
MSL
hPa
Rain since
9am
mm
Dir  Spd
km/h
Gust
km/h
Spd
kts
Gust
kts
21/11:30pm 24.4 - - - - ESE 30 35 16 19 1016.1 - -
21/11:24pm 24.6 - - - - ESE 30 - 16 - - 1016.1 -
21/11:00pm 24.7 - - - - ESE 30 33 16 18 1016.3 - -
21/10:30pm 24.6 - - - - ESE 28 33 15 18 1016.4 - -
21/10:24pm 24.5 - - - - ESE 30 - 16 - - 1016.3 -
21/10:00pm 24.8 - - - - ESE 28 32 15 17 1016.4 - -
21/09:30pm 24.5 - - - - ESE 30 33 16 18 1016.4 - -
21/09:24pm 24.6 - - - - ESE 30 - 16 - - 1016.3 -
21/09:00pm 24.8 - - - - ESE 28 32 15 17 1016.4 - -
21/08:30pm 24.5 - - - - ESE 28 30 15 16 1016.2 - -
21/08:24pm 24.7 - - - - ESE 26 - 14 - - 1016.0 -
21/08:00pm 24.9 - - - - ESE 26 32 14 17 1015.9 - -
21/07:30pm 24.7 - - - - ESE 28 32 15 17 1015.6 - -
21/07:24pm 24.6 - - - - SE 30 - 16 - - 1015.4 -
21/07:00pm 24.5 - - - - SE 30 33 16 18 1015.2 - -

Other Formats:

Comma delimited format used in spreadsheet applications
http://www.bom.gov.au/fwo/IDQ60801/IDQ60801.94290.axf

JavaScript Object Notation format (JSON) in row-major order
http://www.bom.gov.au/fwo/IDQ60801/IDQ60801.94290.json